Terminal Aerodrome Forecast
Issued by NWS

Home | Current Version | Previous Version | Graphics & Text | Print | Product List | Glossary On
Versions: 1 2 3 4 5 6 7 8 9 10 11 12 13 14 15 16 17 18 19
718
FTUS43 KGRB 232320
TAFCWA
TAF
KCWA 232320Z 2400/2424 06010KT P6SM VCSH OVC035
      TEMPO 2401/2405 5SM -RA BKN018
     FM240500 03008KT 6SM -RA BR OVC012
      TEMPO 2405/2409 3SM -RA BR OVC007
     FM241500 06009KT P6SM VCSH OVC015
     FM241900 06009KT P6SM OVC018=

USA.gov is the U.S. government's official web portal to all federal, state and local government web resources and services.